sensor_id;sensor_type;location;lat;lon;timestamp;pressure;altitude;pressure_sealevel;temperature;humidity
42003;BME280;27693;50.506;30.832;2023-03-11T00:00:13;98259.12;;;3.48;84.36
42003;BME280;27693;50.506;30.832;2023-03-11T00:01:17;98265.02;;;3.29;84.27
42003;BME280;27693;50.506;30.832;2023-03-11T00:02:20;98261.27;;;3.36;84.45
42003;BME280;27693;50.506;30.832;2023-03-11T00:03:23;98255.48;;;3.31;84.45
42003;BME280;27693;50.506;30.832;2023-03-11T00:04:26;98252.34;;;3.25;84.59
42003;BME280;27693;50.506;30.832;2023-03-11T00:05:30;98253.88;;;3.29;84.58
42003;BME280;27693;50.506;30.832;2023-03-11T00:06:34;98251.55;;;3.23;84.69
42003;BME280;27693;50.506;30.832;2023-03-11T00:07:36;98243.77;;;3.24;84.70
42003;BME280;27693;50.506;30.832;2023-03-11T00:08:41;98252.76;;;3.14;84.91
42003;BME280;27693;50.506;30.832;2023-03-11T00:09:44;98252.76;;;3.14;85.21
42003;BME280;27693;50.506;30.832;2023-03-11T00:10:51;98255.91;;;3.20;85.24
42003;BME280;27693;50.506;30.832;2023-03-11T00:11:54;98253.16;;;3.25;85.04
42003;BME280;27693;50.506;30.832;2023-03-11T00:12:58;98245.39;;;3.04;85.25
42003;BME280;27693;50.506;30.832;2023-03-11T00:14:01;98245.53;;;3.01;85.55
42003;BME280;27693;50.506;30.832;2023-03-11T00:15:04;98249.53;;;3.09;85.71
42003;BME280;27693;50.506;30.832;2023-03-11T00:16:07;98239.47;;;3.02;85.65
42003;BME280;27693;50.506;30.832;2023-03-11T00:17:09;98247.69;;;3.12;85.73
42003;BME280;27693;50.506;30.832;2023-03-11T00:18:11;98238.09;;;3.16;85.52
42003;BME280;27693;50.506;30.832;2023-03-11T00:19:14;98241.59;;;3.15;85.50
42003;BME280;27693;50.506;30.832;2023-03-11T00:20:20;98232.95;;;3.16;85.51
42003;BME280;27693;50.506;30.832;2023-03-11T00:21:23;98229.31;;;3.22;85.43
42003;BME280;27693;50.506;30.832;2023-03-11T00:22:25;98237.45;;;3.11;85.25
42003;BME280;27693;50.506;30.832;2023-03-11T00:23:28;98238.03;;;2.95;85.63
42003;BME280;27693;50.506;30.832;2023-03-11T00:24:30;98231.52;;;2.86;86.13
42003;BME280;27693;50.506;30.832;2023-03-11T00:25:35;98228.71;;;2.93;86.38
42003;BME280;27693;50.506;30.832;2023-03-11T00:26:38;98222.69;;;2.94;86.27
42003;BME280;27693;50.506;30.832;2023-03-11T00:27:42;98229.02;;;2.85;86.45
42003;BME280;27693;50.506;30.832;2023-03-11T00:28:45;98227.89;;;2.92;86.61
42003;BME280;27693;50.506;30.832;2023-03-11T00:29:49;98226.86;;;2.96;86.68
42003;BME280;27693;50.506;30.832;2023-03-11T00:30:52;98218.27;;;2.97;86.49
42003;BME280;27693;50.506;30.832;2023-03-11T00:31:55;98223.41;;;2.97;86.35
42003;BME280;27693;50.506;30.832;2023-03-11T00:32:59;98232.14;;;2.93;86.46
42003;BME280;27693;50.506;30.832;2023-03-11T00:34:02;98223.58;;;2.93;86.47
42003;BME280;27693;50.506;30.832;2023-03-11T00:35:09;98224.70;;;2.85;86.52
42003;BME280;27693;50.506;30.832;2023-03-11T00:36:24;98222.10;;;2.87;86.71
42003;BME280;27693;50.506;30.832;2023-03-11T00:37:29;98227.10;;;2.90;86.73
42003;BME280;27693;50.506;30.832;2023-03-11T00:38:32;98216.89;;;2.88;86.55
42003;BME280;27693;50.506;30.832;2023-03-11T00:39:34;98216.00;;;2.90;86.68
42003;BME280;27693;50.506;30.832;2023-03-11T00:40:38;98220.28;;;2.89;86.65
42003;BME280;27693;50.506;30.832;2023-03-11T00:41:41;98209.77;;;2.95;86.78
42003;BME280;27693;50.506;30.832;2023-03-11T00:42:44;98211.34;;;2.99;86.55
42003;BME280;27693;50.506;30.832;2023-03-11T00:43:46;98216.25;;;2.83;86.59
42003;BME280;27693;50.506;30.832;2023-03-11T00:44:49;98213.54;;;2.86;86.76
42003;BME280;27693;50.506;30.832;2023-03-11T00:45:51;98211.28;;;2.79;86.77
42003;BME280;27693;50.506;30.832;2023-03-11T00:46:54;98217.13;;;2.82;86.87
42003;BME280;27693;50.506;30.832;2023-03-11T00:47:57;98206.14;;;2.79;86.88
42003;BME280;27693;50.506;30.832;2023-03-11T00:49:00;98199.39;;;2.76;87.18
42003;BME280;27693;50.506;30.832;2023-03-11T00:50:03;98200.94;;;2.80;87.16
42003;BME280;27693;50.506;30.832;2023-03-11T00:51:14;98204.12;;;2.87;87.15
42003;BME280;27693;50.506;30.832;2023-03-11T00:52:17;98198.74;;;2.93;86.91
42003;BME280;27693;50.506;30.832;2023-03-11T00:53:21;98199.50;;;2.95;86.58
42003;BME280;27693;50.506;30.832;2023-03-11T00:54:23;98190.14;;;2.94;86.45
42003;BME280;27693;50.506;30.832;2023-03-11T00:55:28;98195.75;;;3.04;86.52
42003;BME280;27693;50.506;30.832;2023-03-11T00:56:33;98188.80;;;3.06;86.22
42003;BME280;27693;50.506;30.832;2023-03-11T00:57:35;98191.75;;;2.97;85.96
42003;BME280;27693;50.506;30.832;2023-03-11T00:58:38;98185.76;;;2.96;86.01
42003;BME280;27693;50.506;30.832;2023-03-11T00:59:40;98179.91;;;2.93;86.04
42003;BME280;27693;50.506;30.832;2023-03-11T01:00:43;98176.62;;;2.89;86.16
42003;BME280;27693;50.506;30.832;2023-03-11T01:01:46;98178.47;;;2.85;86.35
42003;BME280;27693;50.506;30.832;2023-03-11T01:02:49;98168.91;;;2.89;86.44
42003;BME280;27693;50.506;30.832;2023-03-11T01:03:52;98170.34;;;2.96;86.44
42003;BME280;27693;50.506;30.832;2023-03-11T01:04:55;98177.75;;;2.82;86.47
42003;BME280;27693;50.506;30.832;2023-03-11T01:05:58;98173.00;;;2.73;86.73
42003;BME280;27693;50.506;30.832;2023-03-11T01:07:01;98173.23;;;2.66;86.95
42003;BME280;27693;50.506;30.832;2023-03-11T01:08:03;98172.14;;;2.72;87.29
42003;BME280;27693;50.506;30.832;2023-03-11T01:09:06;98162.23;;;2.85;87.32
42003;BME280;27693;50.506;30.832;2023-03-11T01:10:10;98164.87;;;2.83;87.05
42003;BME280;27693;50.506;30.832;2023-03-11T01:11:13;98168.41;;;2.81;86.89
42003;BME280;27693;50.506;30.832;2023-03-11T01:12:15;98171.01;;;2.79;87.08
42003;BME280;27693;50.506;30.832;2023-03-11T01:13:18;98164.27;;;2.77;86.97
42003;BME280;27693;50.506;30.832;2023-03-11T01:14:21;98169.40;;;2.77;86.95
42003;BME280;27693;50.506;30.832;2023-03-11T01:15:31;98163.44;;;2.76;87.06
42003;BME280;27693;50.506;30.832;2023-03-11T01:16:34;98171.42;;;2.68;87.14
42003;BME280;27693;50.506;30.832;2023-03-11T01:17:37;98156.70;;;2.74;87.21
42003;BME280;27693;50.506;30.832;2023-03-11T01:18:39;98156.70;;;2.74;87.21
42003;BME280;27693;50.506;30.832;2023-03-11T01:19:42;98161.52;;;2.81;87.21
42003;BME280;27693;50.506;30.832;2023-03-11T01:20:46;98153.50;;;2.89;87.05
42003;BME280;27693;50.506;30.832;2023-03-11T01:21:49;98157.34;;;2.79;87.00
42003;BME280;27693;50.506;30.832;2023-03-11T01:22:51;98157.52;;;2.74;86.93
42003;BME280;27693;50.506;30.832;2023-03-11T01:23:54;98158.06;;;2.60;87.25
42003;BME280;27693;50.506;30.832;2023-03-11T01:24:57;98152.86;;;2.62;87.41
42003;BME280;27693;50.506;30.832;2023-03-11T01:25:59;98154.47;;;2.64;87.54
42003;BME280;27693;50.506;30.832;2023-03-11T01:27:02;98164.27;;;2.77;87.60
42003;BME280;27693;50.506;30.832;2023-03-11T01:28:05;98157.34;;;2.79;87.43
42003;BME280;27693;50.506;30.832;2023-03-11T01:29:09;98149.33;;;2.86;87.36
42003;BME280;27693;50.506;30.832;2023-03-11T01:30:14;98152.61;;;2.90;87.13
42003;BME280;27693;50.506;30.832;2023-03-11T01:31:17;98154.22;;;2.93;86.95
42003;BME280;27693;50.506;30.832;2023-03-11T01:32:20;98151.89;;;2.86;86.59
42003;BME280;27693;50.506;30.832;2023-03-11T01:33:22;98148.57;;;2.84;86.64
42003;BME280;27693;50.506;30.832;2023-03-11T01:34:24;98152.67;;;2.88;86.57
42003;BME280;27693;50.506;30.832;2023-03-11T01:35:28;98148.36;;;2.89;86.47
42003;BME280;27693;50.506;30.832;2023-03-11T01:36:31;98144.36;;;2.82;86.40
42003;BME280;27693;50.506;30.832;2023-03-11T01:37:34;98148.20;;;2.71;86.57
42003;BME280;27693;50.506;30.832;2023-03-11T01:38:36;98152.55;;;2.69;86.99
42003;BME280;27693;50.506;30.832;2023-03-11T01:39:39;98151.13;;;2.62;87.10
42003;BME280;27693;50.506;30.832;2023-03-11T01:40:45;98148.03;;;2.54;87.40
42003;BME280;27693;50.506;30.832;2023-03-11T01:41:48;98144.68;;;2.52;87.65
42003;BME280;27693;50.506;30.832;2023-03-11T01:42:50;98147.35;;;2.49;88.00
42003;BME280;27693;50.506;30.832;2023-03-11T01:43:54;98142.35;;;2.46;88.07
42003;BME280;27693;50.506;30.832;2023-03-11T01:44:58;98144.78;;;2.49;88.38
42003;BME280;27693;50.506;30.832;2023-03-11T01:46:16;98144.44;;;2.58;88.38
42003;BME280;27693;50.506;30.832;2023-03-11T01:47:32;98146.16;;;2.58;88.07
42003;BME280;27693;50.506;30.832;2023-03-11T01:48:35;98138.66;;;2.53;88.07
42003;BME280;27693;50.506;30.832;2023-03-11T01:49:40;98131.30;;;2.44;88.24
42003;BME280;27693;50.506;30.832;2023-03-11T01:50:45;98139.23;;;2.37;88.51
42003;BME280;27693;50.506;30.832;2023-03-11T01:52:01;98134.03;;;2.39;88.79
42003;BME280;27693;50.506;30.832;2023-03-11T01:53:05;98132.97;;;2.45;88.70
42003;BME280;27693;50.506;30.832;2023-03-11T01:54:14;98134.41;;;2.52;88.64
42003;BME280;27693;50.506;30.832;2023-03-11T01:55:17;98129.38;;;2.49;88.66
42003;BME280;27693;50.506;30.832;2023-03-11T01:56:22;98123.36;;;2.50;88.72
42003;BME280;27693;50.506;30.832;2023-03-11T01:57:25;98127.59;;;2.51;88.63
42003;BME280;27693;50.506;30.832;2023-03-11T01:58:31;98127.26;;;2.60;88.59
42003;BME280;27693;50.506;30.832;2023-03-11T01:59:45;98124.72;;;2.59;88.32
42003;BME280;27693;50.506;30.832;2023-03-11T02:00:48;98124.45;;;2.66;88.17
42003;BME280;27693;50.506;30.832;2023-03-11T02:02:13;98126.63;;;2.76;88.19
42003;BME280;27693;50.506;30.832;2023-03-11T02:03:36;98131.73;;;2.77;87.69
42003;BME280;27693;50.506;30.832;2023-03-11T02:04:25;98131.78;;;2.53;87.65
42003;BME280;27693;50.506;30.832;2023-03-11T02:05:28;98123.97;;;2.57;87.87
42003;BME280;27693;50.506;30.832;2023-03-11T02:06:31;98123.66;;;2.64;87.96
42003;BME280;27693;50.506;30.832;2023-03-11T02:07:37;98119.06;;;2.73;88.05
42003;BME280;27693;50.506;30.832;2023-03-11T02:08:41;98114.00;;;2.71;87.73
42003;BME280;27693;50.506;30.832;2023-03-11T02:09:45;98121.39;;;2.79;87.66
42003;BME280;27693;50.506;30.832;2023-03-11T02:10:48;98132.38;;;2.82;87.37
42003;BME280;27693;50.506;30.832;2023-03-11T02:11:55;98117.54;;;2.89;87.23
42003;BME280;27693;50.506;30.832;2023-03-11T02:12:59;98114.53;;;3.00;87.12
42003;BME280;27693;50.506;30.832;2023-03-11T02:14:03;98106.12;;;2.96;86.55
42003;BME280;27693;50.506;30.832;2023-03-11T02:15:09;98112.94;;;2.97;86.39
42003;BME280;27693;50.506;30.832;2023-03-11T02:16:13;98109.37;;;2.79;86.33
42003;BME280;27693;50.506;30.832;2023-03-11T02:17:16;98113.03;;;2.74;86.68
42003;BME280;27693;50.506;30.832;2023-03-11T02:18:19;98109.55;;;2.75;86.86
42003;BME280;27693;50.506;30.832;2023-03-11T02:21:58;98104.23;;;2.79;86.89
42003;BME280;27693;50.506;30.832;2023-03-11T02:23:02;98112.65;;;2.83;86.91
42003;BME280;27693;50.506;30.832;2023-03-11T02:24:09;98107.66;;;2.80;86.78
42003;BME280;27693;50.506;30.832;2023-03-11T02:25:25;98100.84;;;2.79;86.83
42003;BME280;27693;50.506;30.832;2023-03-11T02:26:51;98103.59;;;2.74;86.82
42003;BME280;27693;50.506;30.832;2023-03-11T02:27:54;98100.84;;;2.79;86.98
42003;BME280;27693;50.506;30.832;2023-03-11T02:29:02;98115.75;;;2.91;86.97
42003;BME280;27693;50.506;30.832;2023-03-11T02:30:08;98102.84;;;2.93;86.61
42003;BME280;27693;50.506;30.832;2023-03-11T02:31:12;98104.27;;;3.00;86.50
42003;BME280;27693;50.506;30.832;2023-03-11T02:32:15;98108.06;;;3.12;86.54
42003;BME280;27693;50.506;30.832;2023-03-11T02:33:19;98104.72;;;3.10;86.04
42003;BME280;27693;50.506;30.832;2023-03-11T02:34:29;98115.66;;;3.15;85.82
42003;BME280;27693;50.506;30.832;2023-03-11T02:35:29;98103.11;;;3.07;85.58
42003;BME280;27693;50.506;30.832;2023-03-11T02:36:36;98094.95;;;2.97;85.48
42003;BME280;27693;50.506;30.832;2023-03-11T02:37:44;98103.11;;;3.07;85.67
42003;BME280;27693;50.506;30.832;2023-03-11T02:38:47;98094.58;;;3.07;85.58
42003;BME280;27693;50.506;30.832;2023-03-11T02:39:52;98096.26;;;3.08;85.58
42003;BME280;27693;50.506;30.832;2023-03-11T02:40:57;98099.19;;;2.98;85.44
42003;BME280;27693;50.506;30.832;2023-03-11T02:43:21;98094.56;;;2.86;86.03
42003;BME280;27693;50.506;30.832;2023-03-11T02:44:23;98103.05;;;2.88;86.31
42003;BME280;27693;50.506;30.832;2023-03-11T02:45:27;98094.85;;;2.78;86.40
42003;BME280;27693;50.506;30.832;2023-03-11T02:46:31;98097.77;;;2.91;86.54
42003;BME280;27693;50.506;30.832;2023-03-11T02:47:36;98094.84;;;3.00;86.56
42003;BME280;27693;50.506;30.832;2023-03-11T02:48:41;98095.59;;;3.02;86.21
42003;BME280;27693;50.506;30.832;2023-03-11T02:49:44;98095.55;;;3.04;86.02
42003;BME280;27693;50.506;30.832;2023-03-11T02:50:47;98092.12;;;3.03;85.79
42003;BME280;27693;50.506;30.832;2023-03-11T02:51:50;98087.66;;;3.09;85.71
42003;BME280;27693;50.506;30.832;2023-03-11T02:52:53;98091.61;;;3.16;85.65
42003;BME280;27693;50.506;30.832;2023-03-11T02:54:00;98093.43;;;3.14;85.47
42003;BME280;27693;50.506;30.832;2023-03-11T02:55:04;98089.45;;;3.07;85.24
42003;BME280;27693;50.506;30.832;2023-03-11T02:56:08;98090.59;;;2.99;85.61
42003;BME280;27693;50.506;30.832;2023-03-11T02:57:11;98088.14;;;2.96;85.69
42003;BME280;27693;50.506;30.832;2023-03-11T02:58:13;98086.34;;;2.98;85.76
42003;BME280;27693;50.506;30.832;2023-03-11T02:59:16;98082.88;;;2.99;85.76
42003;BME280;27693;50.506;30.832;2023-03-11T03:00:19;98083.00;;;2.96;85.78
42003;BME280;27693;50.506;30.832;2023-03-11T03:01:24;98090.52;;;3.01;85.81
42003;BME280;27693;50.506;30.832;2023-03-11T03:02:26;98084.74;;;2.96;85.66
42003;BME280;27693;50.506;30.832;2023-03-11T03:03:29;98087.24;;;2.97;85.73
42003;BME280;27693;50.506;30.832;2023-03-11T03:04:31;98087.42;;;2.93;85.82
42003;BME280;27693;50.506;30.832;2023-03-11T03:05:34;98088.92;;;2.98;85.88
42003;BME280;27693;50.506;30.832;2023-03-11T03:06:38;98093.69;;;3.08;85.87
42003;BME280;27693;50.506;30.832;2023-03-11T03:07:40;98084.87;;;3.13;85.79
42003;BME280;27693;50.506;30.832;2023-03-11T03:08:43;98086.34;;;2.98;85.76
42003;BME280;27693;50.506;30.832;2023-03-11T03:09:45;98091.41;;;3.00;85.82
42003;BME280;27693;50.506;30.832;2023-03-11T03:10:48;98090.66;;;2.98;85.74
42003;BME280;27693;50.506;30.832;2023-03-11T03:11:50;98088.53;;;2.87;85.90
42003;BME280;27693;50.506;30.832;2023-03-11T03:12:52;98090.42;;;2.82;86.37
42003;BME280;27693;50.506;30.832;2023-03-11T03:13:55;98078.73;;;2.75;86.61
42003;BME280;27693;50.506;30.832;2023-03-11T03:14:58;98083.75;;;2.78;86.67
42003;BME280;27693;50.506;30.832;2023-03-11T03:16:01;98092.10;;;2.83;86.77
42003;BME280;27693;50.506;30.832;2023-03-11T03:17:04;98077.30;;;2.90;86.71
42003;BME280;27693;50.506;30.832;2023-03-11T03:18:07;98084.93;;;2.91;86.55
42003;BME280;27693;50.506;30.832;2023-03-11T03:19:09;98078.26;;;2.87;86.48
42003;BME280;27693;50.506;30.832;2023-03-11T03:20:13;98076.16;;;2.75;86.65
42003;BME280;27693;50.506;30.832;2023-03-11T03:21:18;98070.52;;;2.66;86.89
42003;BME280;27693;50.506;30.832;2023-03-11T03:22:20;98074.52;;;2.74;87.08
42003;BME280;27693;50.506;30.832;2023-03-11T03:23:25;98067.56;;;2.76;87.12
42003;BME280;27693;50.506;30.832;2023-03-11T03:24:28;98070.59;;;2.85;87.07
42003;BME280;27693;50.506;30.832;2023-03-11T03:25:31;98074.91;;;2.85;86.76
42003;BME280;27693;50.506;30.832;2023-03-11T03:26:36;98060.71;;;2.76;86.95
42003;BME280;27693;50.506;30.832;2023-03-11T03:27:39;98060.71;;;2.76;86.95
42003;BME280;27693;50.506;30.832;2023-03-11T03:28:42;98059.61;;;2.82;87.01
42003;BME280;27693;50.506;30.832;2023-03-11T03:29:46;98060.71;;;2.76;86.83
42003;BME280;27693;50.506;30.832;2023-03-11T03:30:48;98054.72;;;2.76;86.86
42003;BME280;27693;50.506;30.832;2023-03-11T03:31:51;98053.83;;;2.77;86.90
42003;BME280;27693;50.506;30.832;2023-03-11T03:32:55;98047.80;;;2.78;86.92
42003;BME280;27693;50.506;30.832;2023-03-11T03:33:58;98046.73;;;2.83;86.84
42003;BME280;27693;50.506;30.832;2023-03-11T03:35:01;98044.45;;;2.76;86.72
42003;BME280;27693;50.506;30.832;2023-03-11T03:36:11;98042.55;;;2.81;86.88
42003;BME280;27693;50.506;30.832;2023-03-11T03:37:16;98044.20;;;2.82;86.80
42003;BME280;27693;50.506;30.832;2023-03-11T03:38:19;98040.80;;;2.81;86.64
42003;BME280;27693;50.506;30.832;2023-03-11T03:39:22;98040.80;;;2.81;86.64
42003;BME280;27693;50.506;30.832;2023-03-11T03:40:25;98034.84;;;2.81;86.72
42003;BME280;27693;50.506;30.832;2023-03-11T03:41:28;98038.95;;;2.85;86.65
42003;BME280;27693;50.506;30.832;2023-03-11T03:42:31;98043.97;;;2.88;86.57
42003;BME280;27693;50.506;30.832;2023-03-11T03:43:33;98030.98;;;2.91;86.57
42003;BME280;27693;50.506;30.832;2023-03-11T03:44:36;98030.09;;;2.92;86.29
42003;BME280;27693;50.506;30.832;2023-03-11T03:45:39;98036.64;;;2.99;86.28
42003;BME280;27693;50.506;30.832;2023-03-11T03:46:42;98030.66;;;2.99;86.10
42003;BME280;27693;50.506;30.832;2023-03-11T03:47:45;98025.52;;;2.99;85.93
42003;BME280;27693;50.506;30.832;2023-03-11T03:48:47;98026.48;;;2.96;85.82
42003;BME280;27693;50.506;30.832;2023-03-11T03:49:49;98013.78;;;2.93;85.84
42003;BME280;27693;50.506;30.832;2023-03-11T03:50:52;98025.21;;;2.86;86.02
42003;BME280;27693;50.506;30.832;2023-03-11T03:51:54;98020.19;;;2.83;86.10
42003;BME280;27693;50.506;30.832;2023-03-11T03:52:59;98015.30;;;2.77;86.29
42003;BME280;27693;50.506;30.832;2023-03-11T03:54:02;98016.88;;;2.81;86.48
42003;BME280;27693;50.506;30.832;2023-03-11T03:55:06;98013.15;;;2.88;86.47
42003;BME280;27693;50.506;30.832;2023-03-11T03:56:12;98016.88;;;2.81;86.42
42003;BME280;27693;50.506;30.832;2023-03-11T03:57:15;98004.78;;;2.83;86.57
42003;BME280;27693;50.506;30.832;2023-03-11T03:58:20;98002.98;;;2.85;86.57
42003;BME280;27693;50.506;30.832;2023-03-11T03:59:23;98005.18;;;2.94;86.54
42003;BME280;27693;50.506;30.832;2023-03-11T04:00:27;98009.87;;;3.05;86.37
42003;BME280;27693;50.506;30.832;2023-03-11T04:01:31;98002.20;;;3.03;86.04
42003;BME280;27693;50.506;30.832;2023-03-11T04:02:34;98004.96;;;2.99;85.89
42003;BME280;27693;50.506;30.832;2023-03-11T04:03:38;97999.00;;;2.98;85.88
42003;BME280;27693;50.506;30.832;2023-03-11T04:04:43;97997.21;;;3.00;85.78
42003;BME280;27693;50.506;30.832;2023-03-11T04:05:50;97994.77;;;2.77;86.10
42003;BME280;27693;50.506;30.832;2023-03-11T04:06:50;97991.30;;;2.78;86.50
42003;BME280;27693;50.506;30.832;2023-03-11T04:07:53;97991.30;;;2.78;86.58
42003;BME280;27693;50.506;30.832;2023-03-11T04:08:56;97988.73;;;2.78;86.74
42003;BME280;27693;50.506;30.832;2023-03-11T04:10:00;97986.28;;;2.75;86.87
42003;BME280;27693;50.506;30.832;2023-03-11T04:11:05;97984.48;;;2.77;86.98
42003;BME280;27693;50.506;30.832;2023-03-11T04:12:15;97983.48;;;2.81;86.91
42003;BME280;27693;50.506;30.832;2023-03-11T04:13:21;97976.86;;;2.75;86.83
42003;BME280;27693;50.506;30.832;2023-03-11T04:14:24;97980.91;;;2.81;86.93
42003;BME280;27693;50.506;30.832;2023-03-11T04:15:28;97966.92;;;2.67;86.94
42003;BME280;27693;50.506;30.832;2023-03-11T04:16:31;97968.70;;;2.65;87.28
42003;BME280;27693;50.506;30.832;2023-03-11T04:17:37;97962.23;;;2.57;87.60
42003;BME280;27693;50.506;30.832;2023-03-11T04:18:40;97956.65;;;2.67;87.83
42003;BME280;27693;50.506;30.832;2023-03-11T04:19:42;97961.00;;;2.65;87.80
42003;BME280;27693;50.506;30.832;2023-03-11T04:20:46;97964.58;;;2.61;87.97
42003;BME280;27693;50.506;30.832;2023-03-11T04:21:49;97965.10;;;2.69;88.05
42003;BME280;27693;50.506;30.832;2023-03-11T04:22:53;97965.63;;;2.78;88.00
42003;BME280;27693;50.506;30.832;2023-03-11T04:23:57;97957.09;;;2.77;87.75
42003;BME280;27693;50.506;30.832;2023-03-11T04:25:03;97965.69;;;2.76;87.71
42003;BME280;27693;50.506;30.832;2023-03-11T04:26:07;97958.25;;;2.70;87.63
42003;BME280;27693;50.506;30.832;2023-03-11T04:27:11;97961.00;;;2.65;87.78
42003;BME280;27693;50.506;30.832;2023-03-11T04:28:14;97957.55;;;2.66;87.93
42003;BME280;27693;50.506;30.832;2023-03-11T04:29:17;97961.12;;;2.62;87.88
42003;BME280;27693;50.506;30.832;2023-03-11T04:30:22;97951.55;;;2.66;87.98
42003;BME280;27693;50.506;30.832;2023-03-11T04:31:26;97951.11;;;2.56;87.98
42003;BME280;27693;50.506;30.832;2023-03-11T04:32:28;97952.92;;;2.54;88.29
42003;BME280;27693;50.506;30.832;2023-03-11T04:33:31;97944.44;;;2.52;88.38
42003;BME280;27693;50.506;30.832;2023-03-11T04:34:34;97949.69;;;2.49;88.58
42003;BME280;27693;50.506;30.832;2023-03-11T04:35:37;97948.88;;;2.48;88.61
42003;BME280;27693;50.506;30.832;2023-03-11T04:36:41;97942.88;;;2.48;88.81
42003;BME280;27693;50.506;30.832;2023-03-11T04:37:43;97935.63;;;2.37;89.04
42003;BME280;27693;50.506;30.832;2023-03-11T04:38:46;97938.00;;;2.42;89.25
42003;BME280;27693;50.506;30.832;2023-03-11T04:39:49;97938.72;;;2.45;89.35
42003;BME280;27693;50.506;30.832;2023-03-11T04:40:59;97936.81;;;2.50;89.41
42003;BME280;27693;50.506;30.832;2023-03-11T04:42:04;97933.98;;;2.57;89.28
42003;BME280;27693;50.506;30.832;2023-03-11T04:43:07;97920.19;;;2.59;89.07
42003;BME280;27693;50.506;30.832;2023-03-11T04:44:12;97925.17;;;2.62;88.85
42003;BME280;27693;50.506;30.832;2023-03-11T04:45:14;97930.97;;;2.67;88.75
42003;BME280;27693;50.506;30.832;2023-03-11T04:46:19;97941.88;;;2.73;88.58
42003;BME280;27693;50.506;30.832;2023-03-11T04:47:22;97930.83;;;2.70;88.44
42003;BME280;27693;50.506;30.832;2023-03-11T04:48:25;97928.19;;;2.72;88.32
42003;BME280;27693;50.506;30.832;2023-03-11T04:49:28;97928.14;;;2.74;88.16
42003;BME280;27693;50.506;30.832;2023-03-11T04:50:31;97926.03;;;2.63;88.17
42003;BME280;27693;50.506;30.832;2023-03-11T04:51:33;97924.91;;;2.68;88.43
42003;BME280;27693;50.506;30.832;2023-03-11T04:52:36;97917.64;;;2.78;88.24
42003;BME280;27693;50.506;30.832;2023-03-11T04:53:38;97925.42;;;2.77;88.15
42003;BME280;27693;50.506;30.832;2023-03-11T04:54:41;97918.30;;;2.83;88.09
42003;BME280;27693;50.506;30.832;2023-03-11T04:55:43;97916.63;;;2.82;87.92
42003;BME280;27693;50.506;30.832;2023-03-11T04:56:47;97914.77;;;2.86;87.81
42003;BME280;27693;50.506;30.832;2023-03-11T04:57:51;97914.34;;;2.95;87.78
42003;BME280;27693;50.506;30.832;2023-03-11T04:58:53;97910.61;;;3.02;87.49
42003;BME280;27693;50.506;30.832;2023-03-11T04:59:56;97909.98;;;2.97;87.14
42003;BME280;27693;50.506;30.832;2023-03-11T05:00:59;97918.50;;;2.79;87.41
42003;BME280;27693;50.506;30.832;2023-03-11T05:02:02;97915.61;;;2.66;87.60
42003;BME280;27693;50.506;30.832;2023-03-11T05:03:05;97914.91;;;2.62;88.13
42003;BME280;27693;50.506;30.832;2023-03-11T05:04:08;97917.09;;;2.71;88.28
42003;BME280;27693;50.506;30.832;2023-03-11T05:05:12;97906.74;;;2.73;88.21
42003;BME280;27693;50.506;30.832;2023-03-11T05:06:15;97906.74;;;2.73;88.21
42003;BME280;27693;50.506;30.832;2023-03-11T05:07:20;97916.31;;;2.69;88.10
42003;BME280;27693;50.506;30.832;2023-03-11T05:08:23;97915.42;;;2.70;88.30
42003;BME280;27693;50.506;30.832;2023-03-11T05:09:26;97902.46;;;2.74;88.41
42003;BME280;27693;50.506;30.832;2023-03-11T05:10:28;97901.69;;;2.71;88.48
42003;BME280;27693;50.506;30.832;2023-03-11T05:11:33;97899.05;;;2.73;88.62
42003;BME280;27693;50.506;30.832;2023-03-11T05:12:35;97897.33;;;2.74;88.72
42003;BME280;27693;50.506;30.832;2023-03-11T05:13:38;97893.16;;;2.71;88.65
42003;BME280;27693;50.506;30.832;2023-03-11T05:14:40;97897.59;;;2.67;88.87
42003;BME280;27693;50.506;30.832;2023-03-11T05:15:44;97894.09;;;2.68;88.97
42003;BME280;27693;50.506;30.832;2023-03-11T05:16:47;97894.76;;;2.74;89.18
42003;BME280;27693;50.506;30.832;2023-03-11T05:17:50;97888.70;;;2.75;89.17
42003;BME280;27693;50.506;30.832;2023-03-11T05:18:52;97886.08;;;2.76;89.19
42003;BME280;27693;50.506;30.832;2023-03-11T05:19:55;97885.81;;;2.82;89.11
42003;BME280;27693;50.506;30.832;2023-03-11T05:21:00;97877.72;;;2.92;89.01
42003;BME280;27693;50.506;30.832;2023-03-11T05:22:05;97873.59;;;2.87;88.77
42003;BME280;27693;50.506;30.832;2023-03-11T05:23:08;97875.69;;;2.98;88.73
42003;BME280;27693;50.506;30.832;2023-03-11T05:24:11;97866.19;;;3.00;88.47
42003;BME280;27693;50.506;30.832;2023-03-11T05:25:13;97874.31;;;3.10;88.52
42003;BME280;27693;50.506;30.832;2023-03-11T05:26:17;97873.06;;;3.19;88.25
42003;BME280;27693;50.506;30.832;2023-03-11T05:27:20;97869.31;;;3.26;88.06
42003;BME280;27693;50.506;30.832;2023-03-11T05:28:24;97868.48;;;3.26;87.65
42003;BME280;27693;50.506;30.832;2023-03-11T05:29:27;97860.00;;;3.43;87.83
42003;BME280;27693;50.506;30.832;2023-03-11T05:30:29;97855.09;;;3.56;87.32
42003;BME280;27693;50.506;30.832;2023-03-11T05:31:33;97849.66;;;3.62;86.70
42003;BME280;27693;50.506;30.832;2023-03-11T05:32:36;97851.41;;;3.61;86.36
42003;BME280;27693;50.506;30.832;2023-03-11T05:33:40;97853.69;;;3.67;86.13
42003;BME280;27693;50.506;30.832;2023-03-11T05:34:44;97845.19;;;3.48;85.94
42003;BME280;27693;50.506;30.832;2023-03-11T05:35:49;97851.91;;;3.50;86.34
42003;BME280;27693;50.506;30.832;2023-03-11T05:36:54;97847.30;;;3.57;86.41
42003;BME280;27693;50.506;30.832;2023-03-11T05:37:57;97844.59;;;3.60;86.04
42003;BME280;27693;50.506;30.832;2023-03-11T05:39:01;97843.83;;;3.58;85.78
42003;BME280;27693;50.506;30.832;2023-03-11T05:40:08;97837.66;;;3.62;85.60
42003;BME280;27693;50.506;30.832;2023-03-11T05:41:12;97852.78;;;3.68;85.63
42003;BME280;27693;50.506;30.832;2023-03-11T05:42:16;97847.34;;;3.75;85.41